createdAt,value
2018-11-10T00:00:54.872Z,11.47
2018-11-10T00:03:23.141Z,10.30
2018-11-10T00:05:51.405Z,9.90
2018-11-10T00:08:19.732Z,12.30
2018-11-10T00:10:47.852Z,9.80
2018-11-10T00:13:16.074Z,10.17
2018-11-10T00:15:44.295Z,8.70
2018-11-10T00:18:12.509Z,9.27
2018-11-10T00:20:40.715Z,8.90
2018-11-10T00:23:08.972Z,8.67
2018-11-10T00:25:37.180Z,9.50
2018-11-10T00:28:05.398Z,8.80
2018-11-10T00:30:33.632Z,8.30
2018-11-10T00:33:01.854Z,9.60
2018-11-10T00:35:30.084Z,8.40
2018-11-10T00:37:58.350Z,8.10
2018-11-10T00:40:26.563Z,9.27
2018-11-10T00:42:54.908Z,8.23
2018-11-10T00:45:23.429Z,8.57
2018-11-10T00:47:51.735Z,8.70
2018-11-10T00:50:19.989Z,8.30
2018-11-10T00:52:48.286Z,8.03
2018-11-10T00:55:16.553Z,8.60
2018-11-10T00:57:44.780Z,8.00
2018-11-10T01:00:13.524Z,8.70
2018-11-10T01:02:42.899Z,7.67
2018-11-10T01:05:11.312Z,8.30
2018-11-10T01:07:40.114Z,8.37
2018-11-10T01:10:09.805Z,8.03
2018-11-10T01:12:38.291Z,8.07
2018-11-10T01:15:08.348Z,9.40
2018-11-10T01:17:36.744Z,8.23
2018-11-10T01:20:05.287Z,8.87
2018-11-10T01:22:33.536Z,9.10
2018-11-10T01:25:01.779Z,9.30
2018-11-10T01:27:30.099Z,8.67
2018-11-10T01:29:58.384Z,8.80
2018-11-10T01:32:26.668Z,8.10
2018-11-10T01:34:54.968Z,8.67
2018-11-10T01:37:23.247Z,9.33
2018-11-10T01:39:51.577Z,9.10
2018-11-10T01:42:19.809Z,8.50
2018-11-10T01:44:48.137Z,7.90
2018-11-10T01:47:16.512Z,8.00
2018-11-10T01:49:44.766Z,7.87
2018-11-10T01:52:13.041Z,8.57
2018-11-10T01:54:41.408Z,8.50
2018-11-10T01:57:09.668Z,7.37
2018-11-10T01:59:37.914Z,8.27
2018-11-10T02:02:06.347Z,7.33
2018-11-10T02:04:34.656Z,7.43
2018-11-10T02:07:02.915Z,8.60
2018-11-10T02:09:31.145Z,7.33
2018-11-10T02:11:59.369Z,8.07
2018-11-10T02:14:27.625Z,7.53
2018-11-10T02:16:55.900Z,7.67
2018-11-10T02:19:24.160Z,8.30
2018-11-10T02:21:52.416Z,7.90
2018-11-10T02:24:21.084Z,7.90
2018-11-10T02:26:49.360Z,7.70
2018-11-10T02:29:17.622Z,6.80
2018-11-10T02:31:45.881Z,6.40
2018-11-10T02:34:14.139Z,6.97
2018-11-10T02:36:42.470Z,6.70
2018-11-10T02:39:10.860Z,7.50
2018-11-10T02:41:39.165Z,7.13
2018-11-10T02:44:08.256Z,7.30
2018-11-10T02:46:36.526Z,6.03
2018-11-10T02:49:04.948Z,7.53
2018-11-10T02:51:33.179Z,6.20
2018-11-10T02:54:01.441Z,6.33
2018-11-10T02:56:29.672Z,6.90
2018-11-10T02:58:57.917Z,6.43
2018-11-10T03:01:26.192Z,5.87
2018-11-10T03:03:54.448Z,6.30
2018-11-10T03:06:22.931Z,6.57
2018-11-10T03:08:51.172Z,6.00
2018-11-10T03:11:19.632Z,5.27
2018-11-10T03:13:47.885Z,6.30
2018-11-10T03:16:19.061Z,5.67
2018-11-10T03:18:47.331Z,5.60
2018-11-10T03:21:15.548Z,6.10
2018-11-10T03:23:43.823Z,5.87
2018-11-10T03:26:12.152Z,5.37
2018-11-10T03:28:40.489Z,6.67
2018-11-10T03:31:08.867Z,6.90
2018-11-10T03:33:37.159Z,6.30
2018-11-10T03:36:05.438Z,6.97
2018-11-10T03:38:33.700Z,7.00
2018-11-10T03:41:02.096Z,6.47
2018-11-10T03:43:30.336Z,6.27
2018-11-10T03:45:58.588Z,6.07
2018-11-10T03:48:26.852Z,7.00
2018-11-10T03:50:55.126Z,5.67
2018-11-10T03:53:23.369Z,6.10
2018-11-10T03:55:51.676Z,5.90
2018-11-10T03:58:19.964Z,5.87
2018-11-10T04:00:48.284Z,5.50
2018-11-10T04:03:16.507Z,4.70
2018-11-10T04:05:44.757Z,5.30
2018-11-10T04:08:13.000Z,5.23
2018-11-10T04:10:41.397Z,5.20
2018-11-10T04:13:09.803Z,4.93
2018-11-10T04:15:38.024Z,4.70
2018-11-10T04:18:06.594Z,4.83
2018-11-10T04:20:34.839Z,4.13
2018-11-10T04:23:03.267Z,4.00
2018-11-10T04:25:31.593Z,3.20
2018-11-10T04:27:59.872Z,3.50
2018-11-10T04:30:28.130Z,3.20
2018-11-10T04:32:56.454Z,3.20
2018-11-10T04:35:24.719Z,2.90
2018-11-10T04:37:52.940Z,3.00
2018-11-10T04:40:21.454Z,2.90
2018-11-10T04:42:49.727Z,2.63
2018-11-10T04:45:17.977Z,3.80
2018-11-10T04:47:46.240Z,3.10
2018-11-10T04:50:14.509Z,2.90
2018-11-10T04:52:57.569Z,3.30
2018-11-10T04:55:25.836Z,3.57
2018-11-10T04:57:54.092Z,3.87
2018-11-10T05:00:22.668Z,4.23
2018-11-10T05:02:50.955Z,3.90
2018-11-10T05:05:19.216Z,3.90
2018-11-10T05:07:47.491Z,2.57
2018-11-10T05:10:15.769Z,2.80
2018-11-10T05:12:44.025Z,3.20
2018-11-10T05:15:13.107Z,3.10
2018-11-10T05:17:41.486Z,2.50
2018-11-10T05:20:09.777Z,3.47
2018-11-10T05:22:38.022Z,4.17
2018-11-10T05:25:07.117Z,3.20
2018-11-10T05:27:35.387Z,3.07
2018-11-10T05:30:04.370Z,3.00
2018-11-10T05:32:32.602Z,3.50
2018-11-10T05:35:00.835Z,3.73
2018-11-10T05:37:29.075Z,4.70
2018-11-10T05:39:57.294Z,3.30
2018-11-10T05:42:25.717Z,3.90
2018-11-10T05:44:53.940Z,3.70
2018-11-10T05:47:22.353Z,3.63
2018-11-10T05:49:50.592Z,3.70
2018-11-10T05:52:18.828Z,4.17
2018-11-10T05:54:47.159Z,3.90
2018-11-10T05:57:15.475Z,3.87
2018-11-10T05:59:43.685Z,3.63
2018-11-10T06:02:11.948Z,4.30
2018-11-10T06:04:40.162Z,3.83
2018-11-10T06:07:08.520Z,4.13
2018-11-10T06:09:36.861Z,4.10
2018-11-10T06:12:05.296Z,4.33
2018-11-10T06:14:33.577Z,4.40
2018-11-10T06:17:01.856Z,4.27
2018-11-10T06:19:30.166Z,4.30
2018-11-10T06:21:58.537Z,3.60
2018-11-10T06:24:26.838Z,3.77
2018-11-10T06:26:55.124Z,3.10
2018-11-10T06:29:23.392Z,3.33
2018-11-10T06:31:51.801Z,3.50
2018-11-10T06:34:20.102Z,2.90
2018-11-10T06:36:48.446Z,3.60
2018-11-10T06:39:16.898Z,4.10
2018-11-10T06:41:45.155Z,3.10
2018-11-10T06:44:13.428Z,3.17
2018-11-10T06:46:41.755Z,3.90
2018-11-10T06:49:10.032Z,3.50
2018-11-10T06:51:38.307Z,2.70
2018-11-10T06:54:06.588Z,3.87
2018-11-10T06:56:35.085Z,3.43
2018-11-10T06:59:03.361Z,3.47
2018-11-10T07:01:32.446Z,2.80
2018-11-10T07:04:00.693Z,3.00
2018-11-10T07:06:29.014Z,3.53
2018-11-10T07:08:57.273Z,3.47
2018-11-10T07:11:25.545Z,3.90
2018-11-10T07:13:53.892Z,4.10
2018-11-10T07:16:22.208Z,3.43
2018-11-10T07:18:50.485Z,3.07
2018-11-10T07:21:18.769Z,3.80
2018-11-10T07:23:47.094Z,3.17
2018-11-10T07:26:15.415Z,3.30
2018-11-10T07:28:43.754Z,3.80
2018-11-10T07:31:12.108Z,3.60
2018-11-10T07:33:40.419Z,3.13
2018-11-10T07:36:08.733Z,3.90
2018-11-10T07:38:37.004Z,4.07
2018-11-10T07:41:05.686Z,3.90
2018-11-10T07:43:34.151Z,3.70
2018-11-10T07:46:02.415Z,5.07
2018-11-10T07:48:30.679Z,3.93
2018-11-10T07:50:59.125Z,4.63
2018-11-10T07:53:27.359Z,4.20
2018-11-10T07:55:55.656Z,3.63
2018-11-10T07:58:23.891Z,3.90
2018-11-10T08:00:52.236Z,4.23
2018-11-10T08:03:20.484Z,4.40
2018-11-10T08:05:48.742Z,4.40
2018-11-10T08:08:17.070Z,3.70
2018-11-10T08:10:45.316Z,4.50
2018-11-10T08:13:13.574Z,3.63
2018-11-10T08:15:41.999Z,4.27
2018-11-10T08:18:10.328Z,4.40
2018-11-10T08:20:38.605Z,4.50
2018-11-10T08:23:06.941Z,4.73
2018-11-10T08:25:35.299Z,4.00
2018-11-10T08:28:04.116Z,4.53
2018-11-10T08:30:32.431Z,3.87
2018-11-10T08:33:00.713Z,4.10
2018-11-10T08:35:28.980Z,4.40
2018-11-10T08:37:57.338Z,5.00
2018-11-10T08:40:25.586Z,4.53
2018-11-10T08:42:53.833Z,5.27
2018-11-10T08:45:22.474Z,4.53
2018-11-10T08:47:50.742Z,5.10
2018-11-10T08:50:19.056Z,5.00
2018-11-10T08:52:47.344Z,5.43
2018-11-10T08:55:15.599Z,5.10
2018-11-10T08:57:44.268Z,5.37
2018-11-10T09:00:12.768Z,5.63
2018-11-10T09:02:41.179Z,6.40
2018-11-10T09:05:10.620Z,5.60
2018-11-10T09:07:38.839Z,5.30
2018-11-10T09:10:09.787Z,5.23
2018-11-10T09:12:38.058Z,4.90
2018-11-10T09:15:08.276Z,5.67
2018-11-10T09:17:36.645Z,4.50
2018-11-10T09:20:07.196Z,4.57
2018-11-10T09:22:35.526Z,3.73
2018-11-10T09:25:04.281Z,4.30
2018-11-10T09:27:32.541Z,4.40
2018-11-10T09:30:00.836Z,4.97
2018-11-10T09:32:29.085Z,4.10
2018-11-10T09:34:57.404Z,3.43
2018-11-10T09:37:25.720Z,3.50
2018-11-10T09:39:54.013Z,3.97
2018-11-10T09:42:22.403Z,3.53
2018-11-10T09:44:50.648Z,4.50
2018-11-10T09:47:18.924Z,3.00
2018-11-10T09:49:47.527Z,3.30
2018-11-10T09:52:15.849Z,3.40
2018-11-10T09:54:44.099Z,3.60
2018-11-10T09:57:12.391Z,3.67
2018-11-10T09:59:40.830Z,3.00
2018-11-10T10:02:09.551Z,4.03
2018-11-10T10:04:37.441Z,3.90
2018-11-10T10:07:05.729Z,3.70
2018-11-10T10:09:34.009Z,3.17
2018-11-10T10:12:02.252Z,3.10
2018-11-10T10:14:30.515Z,3.40
2018-11-10T10:16:58.775Z,3.53
2018-11-10T10:19:27.033Z,3.63
2018-11-10T10:21:55.392Z,3.27
2018-11-10T10:24:23.635Z,3.80
2018-11-10T10:26:51.961Z,3.43
2018-11-10T10:29:20.289Z,3.40
2018-11-10T10:31:48.574Z,3.40
2018-11-10T10:34:16.893Z,2.67
2018-11-10T10:36:45.190Z,3.43
2018-11-10T10:39:13.448Z,3.63
2018-11-10T10:41:42.794Z,3.50
2018-11-10T10:44:11.333Z,4.23
2018-11-10T10:46:39.629Z,3.07
2018-11-10T10:49:07.968Z,3.70
2018-11-10T10:51:36.438Z,4.20
2018-11-10T10:54:04.815Z,3.43
2018-11-10T10:56:33.273Z,3.23
2018-11-10T10:59:01.437Z,3.20
2018-11-10T11:01:35.090Z,3.67
2018-11-10T11:04:08.768Z,3.37
2018-11-10T11:06:37.076Z,4.00
2018-11-10T11:09:06.622Z,3.97
2018-11-10T11:11:35.394Z,3.70
2018-11-10T11:14:03.683Z,3.70
2018-11-10T11:16:31.916Z,3.47
2018-11-10T11:19:00.241Z,3.00
2018-11-10T11:21:28.558Z,4.57
2018-11-10T11:23:56.851Z,3.20
2018-11-10T11:26:25.312Z,3.73
2018-11-10T11:28:53.605Z,3.20
2018-11-10T11:31:22.063Z,3.50
2018-11-10T11:33:50.452Z,4.30
2018-11-10T11:36:18.707Z,4.00
2018-11-10T11:38:46.977Z,4.13
2018-11-10T11:41:15.445Z,3.60
2018-11-10T11:43:43.879Z,3.70
2018-11-10T11:46:12.109Z,3.60
2018-11-10T11:48:40.404Z,3.47
2018-11-10T11:51:08.785Z,3.67
2018-11-10T11:53:36.988Z,3.43
2018-11-10T11:56:11.799Z,3.77
2018-11-10T11:58:40.028Z,3.70
2018-11-10T12:01:08.255Z,3.73
2018-11-10T12:03:36.479Z,3.63
2018-11-10T12:06:05.577Z,4.43
2018-11-10T12:08:33.769Z,3.60
2018-11-10T12:11:01.978Z,4.23
2018-11-10T12:13:30.374Z,4.03
2018-11-10T12:15:59.156Z,3.87
2018-11-10T12:18:27.411Z,3.97
2018-11-10T12:20:55.657Z,3.83
2018-11-10T12:23:23.988Z,4.17
2018-11-10T12:25:52.199Z,3.23
2018-11-10T12:28:20.440Z,4.27
2018-11-10T12:30:48.638Z,3.90
2018-11-10T12:33:16.915Z,3.63
2018-11-10T12:35:45.345Z,3.27
2018-11-10T12:38:13.565Z,4.33
2018-11-10T12:40:42.382Z,3.70
2018-11-10T12:43:10.632Z,3.83
2018-11-10T12:45:38.849Z,3.43
2018-11-10T12:48:07.063Z,3.70
2018-11-10T12:50:35.371Z,4.00
2018-11-10T12:53:04.398Z,3.57
2018-11-10T12:55:32.844Z,3.37
2018-11-10T12:58:01.100Z,3.50
2018-11-10T13:00:29.267Z,4.37
2018-11-10T13:02:57.506Z,3.63
2018-11-10T13:05:25.732Z,4.80
2018-11-10T13:07:53.995Z,17.43
2018-11-10T13:10:22.261Z,10.93
2018-11-10T13:12:51.413Z,9.20
2018-11-10T13:15:19.617Z,6.43
2018-11-10T13:17:47.890Z,9.20
2018-11-10T13:20:16.315Z,7.00
2018-11-10T13:22:44.532Z,5.77
2018-11-10T13:25:13.709Z,5.40
2018-11-10T13:27:41.920Z,4.23
2018-11-10T13:30:11.782Z,5.27
2018-11-10T13:32:40.219Z,4.00
2018-11-10T13:35:09.396Z,6.60
2018-11-10T13:37:37.639Z,4.53
2018-11-10T13:40:06.632Z,5.00
2018-11-10T13:42:34.960Z,3.97
2018-11-10T13:45:03.733Z,4.80
2018-11-10T13:47:32.429Z,3.37
2018-11-10T13:50:01.393Z,4.00
2018-11-10T13:52:29.996Z,3.53
2018-11-10T13:54:58.208Z,3.93
2018-11-10T13:57:26.590Z,4.33
2018-11-10T13:59:54.877Z,3.50
2018-11-10T14:02:23.192Z,4.17
2018-11-10T14:04:51.561Z,4.13
2018-11-10T14:07:19.891Z,3.90
2018-11-10T14:09:48.276Z,3.90
2018-11-10T14:12:16.628Z,3.50
2018-11-10T14:14:44.959Z,4.07
2018-11-10T14:17:13.348Z,3.90
2018-11-10T14:19:41.680Z,3.53
2018-11-10T14:22:10.068Z,4.20
2018-11-10T14:24:38.416Z,4.27
2018-11-10T14:27:07.273Z,4.47
2018-11-10T14:29:35.642Z,3.50
2018-11-10T14:32:04.018Z,3.60
2018-11-10T14:34:32.320Z,3.90
2018-11-10T14:37:00.590Z,3.33
2018-11-10T14:39:28.961Z,3.70
2018-11-10T14:41:57.219Z,3.47
2018-11-10T14:44:25.621Z,3.73
2018-11-10T14:46:53.959Z,4.00
2018-11-10T14:49:22.212Z,5.00
2018-11-10T14:51:50.460Z,3.17
2018-11-10T14:54:18.801Z,3.33
2018-11-10T14:56:47.039Z,12.87
2018-11-10T14:59:15.276Z,3.50
2018-11-10T15:01:43.538Z,2.80
2018-11-10T15:04:11.772Z,4.60
2018-11-10T15:06:40.025Z,4.27
2018-11-10T15:09:09.279Z,4.23
2018-11-10T15:11:37.513Z,3.80
2018-11-10T15:14:05.755Z,4.47
2018-11-10T15:16:33.956Z,3.70
2018-11-10T15:19:02.176Z,3.90
2018-11-10T15:21:30.693Z,3.30
2018-11-10T15:24:00.192Z,3.37
2018-11-10T15:26:28.991Z,5.17
2018-11-10T15:28:57.486Z,4.13
2018-11-10T15:31:25.986Z,3.80
2018-11-10T15:33:55.082Z,4.30
2018-11-10T15:36:23.477Z,3.87
2018-11-10T15:38:51.855Z,4.23
2018-11-10T15:41:20.281Z,3.73
2018-11-10T15:43:49.475Z,4.33
2018-11-10T15:46:17.874Z,4.33
2018-11-10T15:48:46.334Z,3.83
2018-11-10T15:51:14.626Z,3.60
2018-11-10T15:53:42.966Z,2.97
2018-11-10T15:56:11.352Z,3.27
2018-11-10T15:58:39.636Z,4.00
2018-11-10T16:01:07.979Z,4.03
2018-11-10T16:03:36.251Z,4.00
2018-11-10T16:06:04.531Z,3.97
2018-11-10T16:08:32.828Z,4.00
2018-11-10T16:11:01.126Z,3.87
2018-11-10T16:13:29.484Z,3.80
2018-11-10T16:15:57.764Z,3.83
2018-11-10T16:18:26.043Z,3.60
2018-11-10T16:20:54.368Z,2.97
2018-11-10T16:23:22.591Z,3.73
2018-11-10T16:25:50.944Z,4.10
2018-11-10T16:28:19.218Z,3.50
2018-11-10T16:30:47.459Z,4.10
2018-11-10T16:33:15.713Z,3.90
2018-11-10T16:35:44.008Z,3.90
2018-11-10T16:38:12.833Z,3.73
2018-11-10T16:40:41.143Z,3.53
2018-11-10T16:43:09.428Z,2.90
2018-11-10T16:45:37.739Z,4.30
2018-11-10T16:48:19.719Z,4.50
2018-11-10T16:50:47.944Z,3.00
2018-11-10T16:53:16.995Z,17.50
2018-11-10T16:55:45.290Z,2.50
2018-11-10T16:58:13.707Z,4.00
2018-11-10T17:00:41.938Z,3.00
2018-11-10T17:03:10.192Z,3.50
2018-11-10T17:05:38.457Z,4.00
2018-11-10T17:08:06.684Z,3.70
2018-11-10T17:10:34.889Z,4.40
2018-11-10T17:13:03.189Z,3.47
2018-11-10T17:15:31.497Z,3.80
2018-11-10T17:17:59.612Z,3.97
2018-11-10T17:20:27.812Z,5.10
2018-11-10T17:22:56.075Z,4.40
2018-11-10T17:25:24.275Z,3.83
2018-11-10T17:27:52.518Z,3.90
2018-11-10T17:30:21.357Z,4.07
2018-11-10T17:32:49.492Z,4.80
2018-11-10T17:35:17.699Z,4.50
2018-11-10T17:37:46.066Z,5.00
2018-11-10T17:40:15.002Z,4.67
2018-11-10T17:42:43.153Z,5.10
2018-11-10T17:45:12.739Z,6.00
2018-11-10T17:47:41.451Z,5.00
2018-11-10T17:50:10.859Z,4.70
2018-11-10T17:52:39.483Z,5.47
2018-11-10T17:55:08.381Z,5.90
2018-11-10T17:57:37.637Z,5.40
2018-11-10T18:00:06.025Z,5.47
2018-11-10T18:02:34.256Z,5.73
2018-11-10T18:05:02.473Z,5.43
2018-11-10T18:07:31.029Z,5.30
2018-11-10T18:09:59.348Z,5.40
2018-11-10T18:12:27.559Z,5.10
2018-11-10T18:14:55.851Z,4.93
2018-11-10T18:17:24.088Z,5.50
2018-11-10T18:19:52.437Z,5.07
2018-11-10T18:22:20.655Z,5.40
2018-11-10T18:24:48.914Z,4.40
2018-11-10T18:27:17.100Z,5.30
2018-11-10T18:29:45.317Z,5.60
2018-11-10T18:32:13.544Z,4.73
2018-11-10T18:34:41.783Z,5.37
2018-11-10T18:37:10.004Z,5.40
2018-11-10T18:39:38.349Z,4.80
2018-11-10T18:42:06.497Z,5.63
2018-11-10T18:44:34.755Z,5.30
2018-11-10T18:47:02.991Z,5.03
2018-11-10T18:49:31.234Z,5.77
2018-11-10T18:51:59.794Z,6.70
2018-11-10T18:54:28.174Z,7.50
2018-11-10T18:56:56.439Z,8.10
2018-11-10T18:59:24.632Z,7.40
2018-11-10T19:01:52.885Z,8.33
2018-11-10T19:04:21.164Z,8.07
2018-11-10T19:06:49.394Z,7.10
2018-11-10T19:09:17.637Z,6.83
2018-11-10T19:11:45.847Z,6.20
2018-11-10T19:14:14.064Z,6.07
2018-11-10T19:16:42.291Z,6.80
2018-11-10T19:19:10.563Z,6.70
2018-11-10T19:21:38.787Z,6.17
2018-11-10T19:24:07.063Z,6.13
2018-11-10T19:26:35.296Z,5.90
2018-11-10T19:29:03.516Z,6.00
2018-11-10T19:31:31.768Z,5.23
2018-11-10T19:34:00.026Z,5.40
2018-11-10T19:36:28.293Z,5.30
2018-11-10T19:38:57.286Z,5.07
2018-11-10T19:41:25.557Z,5.77
2018-11-10T19:43:53.796Z,4.90
2018-11-10T19:46:22.032Z,4.70
2018-11-10T19:48:50.289Z,4.67
2018-11-10T19:51:18.619Z,4.83
2018-11-10T19:53:46.744Z,5.00
2018-11-10T19:56:14.976Z,4.80
2018-11-10T19:58:43.205Z,3.33
2018-11-10T20:01:11.461Z,4.30
2018-11-10T20:03:39.892Z,5.00
2018-11-10T20:06:08.179Z,4.37
2018-11-10T20:08:36.428Z,4.30
2018-11-10T20:11:04.740Z,4.97
2018-11-10T20:13:32.953Z,4.23
2018-11-10T20:16:01.205Z,4.03
2018-11-10T20:18:29.428Z,3.53
2018-11-10T20:20:57.691Z,5.10
2018-11-10T20:23:25.931Z,3.57
2018-11-10T20:25:54.195Z,4.00
2018-11-10T20:28:22.427Z,4.47
2018-11-10T20:30:50.644Z,3.47
2018-11-10T20:33:18.861Z,4.40
2018-11-10T20:35:47.116Z,3.70
2018-11-10T20:38:15.332Z,3.97
2018-11-10T20:40:43.541Z,4.47
2018-11-10T20:43:11.768Z,4.23
2018-11-10T20:45:39.996Z,4.80
2018-11-10T20:48:08.264Z,4.10
2018-11-10T20:50:36.476Z,3.77
2018-11-10T20:53:04.900Z,4.13
2018-11-10T20:55:33.123Z,3.70
2018-11-10T20:58:01.396Z,3.40
2018-11-10T21:00:29.643Z,3.40
2018-11-10T21:02:57.905Z,4.03
2018-11-10T21:05:26.132Z,3.90
2018-11-10T21:07:54.378Z,3.60
2018-11-10T21:10:22.641Z,4.10
2018-11-10T21:12:51.273Z,4.10
2018-11-10T21:15:19.982Z,3.73
2018-11-10T21:17:48.482Z,3.90
2018-11-10T21:20:16.843Z,3.80
2018-11-10T21:22:45.168Z,3.40
2018-11-10T21:25:14.874Z,4.20
2018-11-10T21:27:43.418Z,3.27
2018-11-10T21:30:13.957Z,4.27
2018-11-10T21:32:42.476Z,4.93
2018-11-10T21:35:10.779Z,4.30
2018-11-10T21:37:39.104Z,4.20
2018-11-10T21:40:11.543Z,4.50
2018-11-10T21:42:39.937Z,4.77
2018-11-10T21:45:09.040Z,4.10
2018-11-10T21:47:37.266Z,4.03
2018-11-10T21:50:07.387Z,4.93
2018-11-10T21:52:35.732Z,4.10
2018-11-10T21:55:04.076Z,3.73
2018-11-10T21:57:32.320Z,4.70
2018-11-10T22:00:00.582Z,4.40
2018-11-10T22:02:28.824Z,4.07
2018-11-10T22:05:03.162Z,4.30
2018-11-10T22:07:31.484Z,3.83
2018-11-10T22:09:59.925Z,4.13
2018-11-10T22:12:28.125Z,3.73
2018-11-10T22:14:56.438Z,3.93
2018-11-10T22:17:24.729Z,4.40
2018-11-10T22:19:53.000Z,4.63
2018-11-10T22:22:21.282Z,4.47
2018-11-10T22:24:49.571Z,4.50
2018-11-10T22:27:17.860Z,4.50
2018-11-10T22:29:46.201Z,4.40
2018-11-10T22:32:14.519Z,4.60
2018-11-10T22:34:42.917Z,4.70
2018-11-10T22:37:11.265Z,3.70
2018-11-10T22:39:39.593Z,4.33
2018-11-10T22:42:07.843Z,4.60
2018-11-10T22:44:36.151Z,4.07
2018-11-10T22:47:04.784Z,4.00
2018-11-10T22:49:33.048Z,5.10
2018-11-10T22:52:01.325Z,4.20
2018-11-10T22:54:29.601Z,4.40
2018-11-10T22:56:57.905Z,4.33
2018-11-10T22:59:26.912Z,3.47
2018-11-10T23:01:55.241Z,4.90
2018-11-10T23:04:23.629Z,4.67
2018-11-10T23:06:51.906Z,4.43
2018-11-10T23:09:20.207Z,4.20
2018-11-10T23:11:49.277Z,4.47
2018-11-10T23:14:17.544Z,4.50
2018-11-10T23:16:45.771Z,3.63
2018-11-10T23:19:14.123Z,4.27
2018-11-10T23:21:42.369Z,3.93
2018-11-10T23:24:10.658Z,4.50
2018-11-10T23:26:38.944Z,3.83
2018-11-10T23:29:07.248Z,4.03
2018-11-10T23:31:35.544Z,4.10
2018-11-10T23:34:03.816Z,4.20
2018-11-10T23:36:32.394Z,3.87
2018-11-10T23:39:00.757Z,4.20
2018-11-10T23:41:29.101Z,4.50
2018-11-10T23:43:57.404Z,4.03
2018-11-10T23:46:25.720Z,4.33
2018-11-10T23:48:54.079Z,3.80
2018-11-10T23:51:22.320Z,3.83
2018-11-10T23:53:50.592Z,4.77
2018-11-10T23:56:18.962Z,5.00
2018-11-10T23:58:47.233Z,4.00
